Wilson Heron — 9HJW9 — position and weather

sailwx.info

Track history (hours):
 
Tides and Currents Weather Stations Pressure Air Temp Water Temp Dewpoint Dewpoint Depression Visibility Wind Speed Wind Dir Waves Ship Positions

Wilson Heron

Last reported at 2017-Sep-22 02:00 UTC. Time now 2017-Sep-22 02:57 UTC.
Position N 53°36' E 004°49'.

Length 91 m; draft 4.8 m.

Type: Cargo ship. MMSI: 249075000.

Date/timePositionNaut miles runAvg speedWind from/ knotsBaromVisibWave heightAir tempDewpointWater temp
2017-Sep-22 02:00N 53°36' E 004°49'5 9.4
2017-Sep-22 01:30N 53°32' E 004°46'510.0
2017-Sep-22 01:01N 53°27' E 004°43'5 9.3
2017-Sep-22 00:30N 53°23' E 004°40'5 9.2
2017-Sep-22 00:01N 53°19' E 004°37'5 9.5
2017-Sep-21 23:31N 53°14' E 004°34'5 9.5
2017-Sep-21 23:00N 53°10' E 004°31'5 9.3
2017-Sep-21 22:31N 53°06' E 004°27'5 9.2
2017-Sep-21 22:01N 53°02' E 004°24'5 9.2
2017-Sep-21 21:31N 52°58' E 004°20'4 9.0
2017-Sep-21 21:01N 52°54' E 004°16'5 9.1
2017-Sep-21 20:30N 52°50' E 004°12'5 9.3
2017-Sep-21 20:00N 52°46' E 004°08'5 9.5
2017-Sep-21 19:30N 52°42' E 004°03'5 9.6
2017-Sep-21 19:00N 52°39' E 003°57'5 9.9
2017-Sep-21 18:30N 52°35' E 003°51'510.1
2017-Sep-21 18:00N 52°32' E 003°46'510.3
2017-Sep-21 17:29N 52°28' E 003°40'6311.1
2017-Sep-21 11:48N 51°41' E 002°31'18 9.5
2017-Sep-21 09:57N 51°28' E 002°13'4 8.4
2017-Sep-21 09:30N 51°25' E 002°09'4 8.3
2017-Sep-21 09:01N 51°21' E 002°07'4 8.6
2017-Sep-21 08:30N 51°17' E 002°06'4 7.8
2017-Sep-21 08:00N 51°13' E 002°03'4 8.3
2017-Sep-21 07:31N 51°11' E 001°57'4 8.3
2017-Sep-21 07:01N 51°09' E 001°52'4 8.3
2017-Sep-21 06:30N 51°06' E 001°47'4 8.5
2017-Sep-21 06:01N 51°04' E 001°41'5 8.9
2017-Sep-21 05:30N 51°01' E 001°36'12 9.6
2017-Sep-21 04:17N 50°51' E 001°26'6210.1
2017-Sep-20 22:09N 50°20' E 000°01'612.7
2017-Sep-20 21:40N 50°18' W 000°08'613.1
2017-Sep-20 21:14N 50°17' W 000°16'1813.7
2017-Sep-20 19:55N 50°12' W 000°43'913.8
2017-Sep-20 19:17N 50°09' W 000°56'413.5
2017-Sep-20 18:59N 50°08' W 001°03'613.1
2017-Sep-20 18:30N 50°06' W 001°12'612.4
2017-Sep-20 18:00N 50°05' W 001°21'611.6
2017-Sep-20 17:30N 50°03' W 001°30'510.7
2017-Sep-20 17:00N 50°02' W 001°38'5 9.7
2017-Sep-20 16:30N 50°01' W 001°45'4 8.7
2017-Sep-20 16:00N 49°59' W 001°52'4 7.9
2017-Sep-20 15:30N 49°58' W 001°58'4 7.3
2017-Sep-20 15:00N 49°57' W 002°03'7 6.4
2017-Sep-20 13:59N 49°56' W 002°13'15 7.1
2017-Sep-20 11:51N 49°52' W 002°36'5 8.8
2017-Sep-20 11:16N 49°50' W 002°43'3 9.4
2017-Sep-20 10:56N 49°49' W 002°48'4 9.6
2017-Sep-20 10:29N 49°48' W 002°54'710.2
2017-Sep-20 09:51N 49°44' W 003°03'310.4
2017-Sep-20 09:30N 49°43' W 003°08'510.5
2017-Sep-20 09:01N 49°40' W 003°15'510.7
2017-Sep-20 08:31N 49°37' W 003°22'611.0
2017-Sep-20 08:01N 49°35' W 003°29'611.1
2017-Sep-20 07:30N 49°32' W 003°36'611.3
2017-Sep-20 07:00N 49°29' W 003°44'611.6
2017-Sep-20 06:31N 49°26' W 003°52'611.9
2017-Sep-20 06:00N 49°23' W 003°60'612.3
2017-Sep-20 05:30N 49°20' W 004°08'612.6
2017-Sep-20 05:01N 49°17' W 004°16'612.7
2017-Sep-20 04:30N 49°13' W 004°24'612.7
2017-Sep-20 04:00N 49°10' W 004°33'612.7
2017-Sep-20 03:31N 49°07' W 004°41'612.6
2017-Sep-20 03:00N 49°04' W 004°49'612.5
2017-Sep-20 02:31N 49°01' W 004°58'612.3
2017-Sep-20 02:01N 48°58' W 005°06'611.9
2017-Sep-20 01:30N 48°55' W 005°14'611.5
2017-Sep-20 01:01N 48°52' W 005°21'611.0
2017-Sep-20 00:30N 48°49' W 005°29'510.3
2017-Sep-19 23:59N 48°46' W 005°36'5 9.9
2017-Sep-19 23:31N 48°42' W 005°39'7 9.6
2017-Sep-19 22:46N 48°36' W 005°44'4 9.4
2017-Sep-19 22:21N 48°33' W 005°47'  
2017-Sep-17 11:35N 39°32' W 009°50'3 9.6
2017-Sep-17 11:16N 39°29' W 009°51'3 9.6
2017-Sep-17 10:59N 39°26' W 009°51'5 9.8
2017-Sep-17 10:30N 39°22' W 009°51'5 9.8
2017-Sep-17 10:00N 39°17' W 009°51'5 9.9
2017-Sep-17 09:30N 39°12' W 009°51'5 9.9
2017-Sep-17 09:00N 39°07' W 009°51'5 9.9
2017-Sep-17 08:31N 39°02' W 009°51'5 9.8
2017-Sep-17 08:01N 38°57' W 009°51'5 9.8
2017-Sep-17 07:30N 38°52' W 009°51'5 9.5
2017-Sep-17 07:00N 38°47' W 009°51'5 9.7
2017-Sep-17 06:31N 38°43' W 009°50'5 9.6
2017-Sep-17 06:00N 38°38' W 009°49'5 9.2
2017-Sep-17 05:30N 38°33' W 009°48'4 8.7
2017-Sep-17 05:01N 38°29' W 009°48'4 8.6
2017-Sep-17 04:31N 38°25' W 009°46'4 8.9
2017-Sep-17 04:01N 38°21' W 009°44'5 9.3
2017-Sep-17 03:30N 38°16' W 009°43'5 8.9
2017-Sep-17 02:59N 38°12' W 009°41'4 8.9
2017-Sep-17 02:30N 38°07' W 009°40'4 9.2
2017-Sep-17 02:00N 38°03' W 009°39'4 8.9
2017-Sep-17 01:30N 37°59' W 009°38'4 8.3
2017-Sep-17 00:59N 37°54' W 009°37'4 8.0
2017-Sep-17 00:30N 37°51' W 009°35'4 8.1
2017-Sep-17 00:00N 37°47' W 009°34'4 7.8
2017-Sep-16 23:31N 37°43' W 009°33'4 7.7
2017-Sep-16 23:00N 37°39' W 009°32'17 7.2
2017-Sep-16 20:39N 37°23' W 009°27'1 6.9
2017-Sep-16 20:27N 37°21' W 009°27'7 7.0
2017-Sep-16 19:31N 37°15' W 009°25'5 7.4
2017-Sep-16 18:50N 37°10' W 009°24'12 7.4
2017-Sep-16 17:14N 36°59' W 009°20'2 7.5
2017-Sep-16 16:56N 36°56' W 009°20'5 7.1
2017-Sep-16 16:13N 36°52' W 009°17'4 7.2
2017-Sep-16 15:44N 36°49' W 009°14'8 7.5
2017-Sep-16 14:39N 36°45' W 009°06'3 8.0
2017-Sep-16 14:18N 36°44' W 009°02'2 8.0
2017-Sep-16 14:01N 36°43' W 008°59'4 8.1
2017-Sep-16 13:30N 36°42' W 008°55'4 8.2
2017-Sep-16 13:00N 36°40' W 008°50'4 8.3
2017-Sep-16 12:29N 36°39' W 008°45'4 8.3
2017-Sep-16 11:59N 36°38' W 008°40'4 8.6
2017-Sep-16 11:31N 36°36' W 008°35'4 8.9
2017-Sep-16 11:01N 36°35' W 008°30'5 9.0
2017-Sep-16 10:30N 36°34' W 008°24'146 3.5
2017-Sep-14 17:06N 36°11' W 005°25'0 0.0
2017-Sep-14 16:06N 36°11' W 005°25'0 0.1
2017-Sep-14 16:00N 36°11' W 005°25'2 0.1
2017-Sep-14 00:23N 36°09' W 005°24'3 6.9
2017-Sep-13 23:59N 36°06' W 005°24'4 9.1
2017-Sep-13 23:30N 36°02' W 005°24'5 9.7
2017-Sep-13 23:00N 35°58' W 005°27'4610.1
2017-Sep-13 18:26N 35°55' W 006°24'510.2
2017-Sep-13 17:59N 35°57' W 006°30'3110.0
2017-Sep-13 14:56N 36°05' W 007°06'3010.0
2017-Sep-13 11:54N 36°13' W 007°42'2110.5
2017-Sep-13 09:57N 36°19' W 008°07'511.2
2017-Sep-13 09:28N 36°20' W 008°13'911.5
2017-Sep-13 08:44N 36°23' W 008°23'611.7
2017-Sep-13 08:14N 36°24' W 008°30'311.6
2017-Sep-13 08:00N 36°25' W 008°33'611.4
2017-Sep-13 07:30N 36°27' W 008°40'611.6
2017-Sep-13 07:00N 36°28' W 008°47'611.6
2017-Sep-13 06:30N 36°30' W 008°54'611.5
2017-Sep-13 06:00N 36°31' W 009°01'611.2
2017-Sep-13 05:30N 36°33' W 009°08'510.8
2017-Sep-13 05:00N 36°34' W 009°14'510.4
2017-Sep-13 04:30N 36°37' W 009°20'610.9
2017-Sep-13 04:00N 36°41' W 009°24'511.2
2017-Sep-13 03:30N 36°45' W 009°29'611.0
2017-Sep-13 02:55N 36°51' W 009°33'2311.1
2017-Sep-13 00:48N 37°14' W 009°33'2411.5
2017-Sep-12 22:44N 37°38' W 009°30'311.7
2017-Sep-12 22:30N 37°40' W 009°30'611.5
2017-Sep-12 22:00N 37°46' W 009°29'611.6
2017-Sep-12 21:30N 37°52' W 009°29'611.5
2017-Sep-12 21:00N 37°58' W 009°28'611.4
2017-Sep-12 20:30N 38°03' W 009°27'611.6
2017-Sep-12 20:00N 38°09' W 009°27'611.4
2017-Sep-12 19:30N 38°15' W 009°26'611.6
2017-Sep-12 19:00N 38°21' W 009°25'611.5
2017-Sep-12 18:30N 38°26' W 009°25'611.4
2017-Sep-12 18:00N 38°32' W 009°24'511.0
2017-Sep-12 17:30N 38°37' W 009°22'510.1
2017-Sep-12 17:00N 38°41' W 009°17'4 8.3
2017-Sep-12 16:30N 38°41' W 009°12'5 9.0
2017-Sep-12 16:00N 38°41' W 009°06'2 3.1
2017-Sep-12 15:28N 38°40' W 009°04'0 0.0
2017-Sep-12 14:59N 38°40' W 009°04'0 0.0
2017-Sep-12 14:08N 38°40' W 009°04'0 0.0
2017-Sep-12 13:59N 38°40' W 009°04'0 0.0
2017-Sep-12 13:22N 38°40' W 009°04'0 0.0
2017-Sep-12 12:53N 38°40' W 009°04'0 0.0
2017-Sep-12 12:22N 38°40' W 009°04'0 0.0
2017-Sep-12 11:58N 38°40' W 009°04'0 0.0
2017-Sep-12 11:22N 38°40' W 009°04'0 0.0
2017-Sep-12 10:59N 38°40' W 009°04'0 0.0
2017-Sep-12 10:29N 38°40' W 009°04'0 0.0
2017-Sep-12 09:55N 38°40' W 009°04'0 0.0
2017-Sep-12 09:04N 38°40' W 009°04'0 0.0
2017-Sep-12 08:49N 38°40' W 009°04'0 0.0
2017-Sep-12 08:28N 38°40' W 009°04'0 0.0
2017-Sep-12 07:59N 38°40' W 009°04'0 0.0
2017-Sep-12 07:25N 38°40' W 009°04'0 0.0
2017-Sep-12 06:58N 38°40' W 009°04'0 0.0
2017-Sep-12 06:25N 38°40' W 009°04'0 0.0
2017-Sep-12 05:52N 38°40' W 009°04'0 0.0
2017-Sep-12 05:22N 38°40' W 009°04'0 0.0
2017-Sep-12 04:58N 38°40' W 009°04'0 0.0
2017-Sep-12 04:22N 38°40' W 009°04'0 0.0
2017-Sep-12 03:58N 38°40' W 009°04'0 0.0
2017-Sep-12 03:28N 38°40' W 009°04'0 0.0
2017-Sep-12 02:58N 38°40' W 009°04'0 0.0
2017-Sep-12 02:22N 38°40' W 009°04'  
Track history (hours):
 
Tides and Currents Weather Stations Pressure Air Temp Water Temp Dewpoint Dewpoint Depression Visibility Wind Speed Wind Dir Waves Ship Positions

Wilson Heron

Last reported at 2017-Sep-22 02:00 UTC. Time now 2017-Sep-22 02:57 UTC.
Position N 53°36' E 004°49'.

Length 91 m; draft 4.8 m.

Type: Cargo ship. MMSI: 249075000.

Date/timePositionNaut miles runAvg speedWind from/ knotsBaromVisibWave heightAir tempDewpointWater temp
2017-Sep-22 02:00N 53°36' E 004°49'5 9.4
2017-Sep-22 01:30N 53°32' E 004°46'510.0
2017-Sep-22 01:01N 53°27' E 004°43'5 9.3
2017-Sep-22 00:30N 53°23' E 004°40'5 9.2
2017-Sep-22 00:01N 53°19' E 004°37'5 9.5
2017-Sep-21 23:31N 53°14' E 004°34'5 9.5
2017-Sep-21 23:00N 53°10' E 004°31'5 9.3
2017-Sep-21 22:31N 53°06' E 004°27'5 9.2
2017-Sep-21 22:01N 53°02' E 004°24'5 9.2
2017-Sep-21 21:31N 52°58' E 004°20'4 9.0
2017-Sep-21 21:01N 52°54' E 004°16'5 9.1
2017-Sep-21 20:30N 52°50' E 004°12'5 9.3
2017-Sep-21 20:00N 52°46' E 004°08'5 9.5
2017-Sep-21 19:30N 52°42' E 004°03'5 9.6
2017-Sep-21 19:00N 52°39' E 003°57'5 9.9
2017-Sep-21 18:30N 52°35' E 003°51'510.1
2017-Sep-21 18:00N 52°32' E 003°46'510.3
2017-Sep-21 17:29N 52°28' E 003°40'6311.1
2017-Sep-21 11:48N 51°41' E 002°31'18 9.5
2017-Sep-21 09:57N 51°28' E 002°13'4 8.4
2017-Sep-21 09:30N 51°25' E 002°09'4 8.3
2017-Sep-21 09:01N 51°21' E 002°07'4 8.6
2017-Sep-21 08:30N 51°17' E 002°06'4 7.8
2017-Sep-21 08:00N 51°13' E 002°03'4 8.3
2017-Sep-21 07:31N 51°11' E 001°57'4 8.3
2017-Sep-21 07:01N 51°09' E 001°52'4 8.3
2017-Sep-21 06:30N 51°06' E 001°47'4 8.5
2017-Sep-21 06:01N 51°04' E 001°41'5 8.9
2017-Sep-21 05:30N 51°01' E 001°36'12 9.6
2017-Sep-21 04:17N 50°51' E 001°26'6210.1
2017-Sep-20 22:09N 50°20' E 000°01'612.7
2017-Sep-20 21:40N 50°18' W 000°08'613.1
2017-Sep-20 21:14N 50°17' W 000°16'1813.7
2017-Sep-20 19:55N 50°12' W 000°43'913.8
2017-Sep-20 19:17N 50°09' W 000°56'413.5
2017-Sep-20 18:59N 50°08' W 001°03'613.1
2017-Sep-20 18:30N 50°06' W 001°12'612.4
2017-Sep-20 18:00N 50°05' W 001°21'611.6
2017-Sep-20 17:30N 50°03' W 001°30'510.7
2017-Sep-20 17:00N 50°02' W 001°38'5 9.7
2017-Sep-20 16:30N 50°01' W 001°45'4 8.7
2017-Sep-20 16:00N 49°59' W 001°52'4 7.9
2017-Sep-20 15:30N 49°58' W 001°58'4 7.3
2017-Sep-20 15:00N 49°57' W 002°03'7 6.4
2017-Sep-20 13:59N 49°56' W 002°13'15 7.1
2017-Sep-20 11:51N 49°52' W 002°36'5 8.8
2017-Sep-20 11:16N 49°50' W 002°43'3 9.4
2017-Sep-20 10:56N 49°49' W 002°48'4 9.6
2017-Sep-20 10:29N 49°48' W 002°54'710.2
2017-Sep-20 09:51N 49°44' W 003°03'310.4
2017-Sep-20 09:30N 49°43' W 003°08'510.5
2017-Sep-20 09:01N 49°40' W 003°15'510.7
2017-Sep-20 08:31N 49°37' W 003°22'611.0
2017-Sep-20 08:01N 49°35' W 003°29'611.1
2017-Sep-20 07:30N 49°32' W 003°36'611.3
2017-Sep-20 07:00N 49°29' W 003°44'611.6
2017-Sep-20 06:31N 49°26' W 003°52'611.9
2017-Sep-20 06:00N 49°23' W 003°60'612.3
2017-Sep-20 05:30N 49°20' W 004°08'612.6
2017-Sep-20 05:01N 49°17' W 004°16'612.7
2017-Sep-20 04:30N 49°13' W 004°24'612.7
2017-Sep-20 04:00N 49°10' W 004°33'612.7
2017-Sep-20 03:31N 49°07' W 004°41'612.6
2017-Sep-20 03:00N 49°04' W 004°49'612.5
2017-Sep-20 02:31N 49°01' W 004°58'612.3
2017-Sep-20 02:01N 48°58' W 005°06'611.9
2017-Sep-20 01:30N 48°55' W 005°14'611.5
2017-Sep-20 01:01N 48°52' W 005°21'611.0
2017-Sep-20 00:30N 48°49' W 005°29'510.3
2017-Sep-19 23:59N 48°46' W 005°36'5 9.9
2017-Sep-19 23:31N 48°42' W 005°39'7 9.6
2017-Sep-19 22:46N 48°36' W 005°44'4 9.4
2017-Sep-19 22:21N 48°33' W 005°47'  
2017-Sep-17 11:35N 39°32' W 009°50'3 9.6
2017-Sep-17 11:16N 39°29' W 009°51'3 9.6
2017-Sep-17 10:59N 39°26' W 009°51'5 9.8
2017-Sep-17 10:30N 39°22' W 009°51'5 9.8
2017-Sep-17 10:00N 39°17' W 009°51'5 9.9
2017-Sep-17 09:30N 39°12' W 009°51'5 9.9
2017-Sep-17 09:00N 39°07' W 009°51'5 9.9
2017-Sep-17 08:31N 39°02' W 009°51'5 9.8
2017-Sep-17 08:01N 38°57' W 009°51'5 9.8
2017-Sep-17 07:30N 38°52' W 009°51'5 9.5
2017-Sep-17 07:00N 38°47' W 009°51'5 9.7
2017-Sep-17 06:31N 38°43' W 009°50'5 9.6
2017-Sep-17 06:00N 38°38' W 009°49'5 9.2
2017-Sep-17 05:30N 38°33' W 009°48'4 8.7
2017-Sep-17 05:01N 38°29' W 009°48'4 8.6
2017-Sep-17 04:31N 38°25' W 009°46'4 8.9
2017-Sep-17 04:01N 38°21' W 009°44'5 9.3
2017-Sep-17 03:30N 38°16' W 009°43'5 8.9
2017-Sep-17 02:59N 38°12' W 009°41'4 8.9
2017-Sep-17 02:30N 38°07' W 009°40'4 9.2
2017-Sep-17 02:00N 38°03' W 009°39'4 8.9
2017-Sep-17 01:30N 37°59' W 009°38'4 8.3
2017-Sep-17 00:59N 37°54' W 009°37'4 8.0
2017-Sep-17 00:30N 37°51' W 009°35'4 8.1
2017-Sep-17 00:00N 37°47' W 009°34'4 7.8
2017-Sep-16 23:31N 37°43' W 009°33'4 7.7
2017-Sep-16 23:00N 37°39' W 009°32'17 7.2
2017-Sep-16 20:39N 37°23' W 009°27'1 6.9
2017-Sep-16 20:27N 37°21' W 009°27'7 7.0
2017-Sep-16 19:31N 37°15' W 009°25'5 7.4
2017-Sep-16 18:50N 37°10' W 009°24'12 7.4
2017-Sep-16 17:14N 36°59' W 009°20'2 7.5
2017-Sep-16 16:56N 36°56' W 009°20'5 7.1
2017-Sep-16 16:13N 36°52' W 009°17'4 7.2
2017-Sep-16 15:44N 36°49' W 009°14'8 7.5
2017-Sep-16 14:39N 36°45' W 009°06'3 8.0
2017-Sep-16 14:18N 36°44' W 009°02'2 8.0
2017-Sep-16 14:01N 36°43' W 008°59'4 8.1
2017-Sep-16 13:30N 36°42' W 008°55'4 8.2
2017-Sep-16 13:00N 36°40' W 008°50'4 8.3
2017-Sep-16 12:29N 36°39' W 008°45'4 8.3
2017-Sep-16 11:59N 36°38' W 008°40'4 8.6
2017-Sep-16 11:31N 36°36' W 008°35'4 8.9
2017-Sep-16 11:01N 36°35' W 008°30'5 9.0
2017-Sep-16 10:30N 36°34' W 008°24'146 3.5
2017-Sep-14 17:06N 36°11' W 005°25'0 0.0
2017-Sep-14 16:06N 36°11' W 005°25'0 0.1
2017-Sep-14 16:00N 36°11' W 005°25'2 0.1
2017-Sep-14 00:23N 36°09' W 005°24'3 6.9
2017-Sep-13 23:59N 36°06' W 005°24'4 9.1
2017-Sep-13 23:30N 36°02' W 005°24'5 9.7
2017-Sep-13 23:00N 35°58' W 005°27'4610.1
2017-Sep-13 18:26N 35°55' W 006°24'510.2
2017-Sep-13 17:59N 35°57' W 006°30'3110.0
2017-Sep-13 14:56N 36°05' W 007°06'3010.0
2017-Sep-13 11:54N 36°13' W 007°42'2110.5
2017-Sep-13 09:57N 36°19' W 008°07'511.2
2017-Sep-13 09:28N 36°20' W 008°13'911.5
2017-Sep-13 08:44N 36°23' W 008°23'611.7
2017-Sep-13 08:14N 36°24' W 008°30'311.6
2017-Sep-13 08:00N 36°25' W 008°33'611.4
2017-Sep-13 07:30N 36°27' W 008°40'611.6
2017-Sep-13 07:00N 36°28' W 008°47'611.6
2017-Sep-13 06:30N 36°30' W 008°54'611.5
2017-Sep-13 06:00N 36°31' W 009°01'611.2
2017-Sep-13 05:30N 36°33' W 009°08'510.8
2017-Sep-13 05:00N 36°34' W 009°14'510.4
2017-Sep-13 04:30N 36°37' W 009°20'610.9
2017-Sep-13 04:00N 36°41' W 009°24'511.2
2017-Sep-13 03:30N 36°45' W 009°29'611.0
2017-Sep-13 02:55N 36°51' W 009°33'2311.1
2017-Sep-13 00:48N 37°14' W 009°33'2411.5
2017-Sep-12 22:44N 37°38' W 009°30'311.7
2017-Sep-12 22:30N 37°40' W 009°30'611.5
2017-Sep-12 22:00N 37°46' W 009°29'611.6
2017-Sep-12 21:30N 37°52' W 009°29'611.5
2017-Sep-12 21:00N 37°58' W 009°28'611.4
2017-Sep-12 20:30N 38°03' W 009°27'611.6
2017-Sep-12 20:00N 38°09' W 009°27'611.4
2017-Sep-12 19:30N 38°15' W 009°26'611.6
2017-Sep-12 19:00N 38°21' W 009°25'611.5
2017-Sep-12 18:30N 38°26' W 009°25'611.4
2017-Sep-12 18:00N 38°32' W 009°24'511.0
2017-Sep-12 17:30N 38°37' W 009°22'510.1
2017-Sep-12 17:00N 38°41' W 009°17'4 8.3
2017-Sep-12 16:30N 38°41' W 009°12'5 9.0
2017-Sep-12 16:00N 38°41' W 009°06'2 3.1
2017-Sep-12 15:28N 38°40' W 009°04'0 0.0
2017-Sep-12 14:59N 38°40' W 009°04'0 0.0
2017-Sep-12 14:08N 38°40' W 009°04'0 0.0
2017-Sep-12 13:59N 38°40' W 009°04'0 0.0
2017-Sep-12 13:22N 38°40' W 009°04'0 0.0
2017-Sep-12 12:53N 38°40' W 009°04'0 0.0
2017-Sep-12 12:22N 38°40' W 009°04'0 0.0
2017-Sep-12 11:58N 38°40' W 009°04'0 0.0
2017-Sep-12 11:22N 38°40' W 009°04'0 0.0
2017-Sep-12 10:59N 38°40' W 009°04'0 0.0
2017-Sep-12 10:29N 38°40' W 009°04'0 0.0
2017-Sep-12 09:55N 38°40' W 009°04'0 0.0
2017-Sep-12 09:04N 38°40' W 009°04'0 0.0
2017-Sep-12 08:49N 38°40' W 009°04'0 0.0
2017-Sep-12 08:28N 38°40' W 009°04'0 0.0
2017-Sep-12 07:59N 38°40' W 009°04'0 0.0
2017-Sep-12 07:25N 38°40' W 009°04'0 0.0
2017-Sep-12 06:58N 38°40' W 009°04'0 0.0
2017-Sep-12 06:25N 38°40' W 009°04'0 0.0
2017-Sep-12 05:52N 38°40' W 009°04'0 0.0
2017-Sep-12 05:22N 38°40' W 009°04'0 0.0
2017-Sep-12 04:58N 38°40' W 009°04'0 0.0
2017-Sep-12 04:22N 38°40' W 009°04'0 0.0
2017-Sep-12 03:58N 38°40' W 009°04'0 0.0
2017-Sep-12 03:28N 38°40' W 009°04'0 0.0
2017-Sep-12 02:58N 38°40' W 009°04'0 0.0
2017-Sep-12 02:22N 38°40' W 009°04'  

Dump ship's entire track history